sensor_id;sensor_type;location;lat;lon;timestamp;temperature;humidity
75931;DHT22;64609;47.052;15.462;2022-11-14T00:00:29;12.80;72.50
75931;DHT22;64609;47.052;15.462;2022-11-14T00:02:59;12.80;72.80
75931;DHT22;64609;47.052;15.462;2022-11-14T00:05:25;12.90;72.70
75931;DHT22;64609;47.052;15.462;2022-11-14T00:07:50;12.90;72.40
75931;DHT22;64609;47.052;15.462;2022-11-14T00:10:16;12.90;72.30
75931;DHT22;64609;47.052;15.462;2022-11-14T00:12:42;12.90;72.30
75931;DHT22;64609;47.052;15.462;2022-11-14T00:15:09;12.90;73.20
75931;DHT22;64609;47.052;15.462;2022-11-14T00:17:35;12.90;73.00
75931;DHT22;64609;47.052;15.462;2022-11-14T00:20:00;12.90;72.70
75931;DHT22;64609;47.052;15.462;2022-11-14T00:22:26;12.90;72.50
75931;DHT22;64609;47.052;15.462;2022-11-14T00:24:52;12.90;72.60
75931;DHT22;64609;47.052;15.462;2022-11-14T00:27:17;12.90;72.60
75931;DHT22;64609;47.052;15.462;2022-11-14T00:29:43;13.00;72.50
75931;DHT22;64609;47.052;15.462;2022-11-14T00:32:08;12.90;72.20
75931;DHT22;64609;47.052;15.462;2022-11-14T00:34:34;13.00;72.20
75931;DHT22;64609;47.052;15.462;2022-11-14T00:37:00;13.00;72.10
75931;DHT22;64609;47.052;15.462;2022-11-14T00:39:26;13.00;71.80
75931;DHT22;64609;47.052;15.462;2022-11-14T00:41:52;13.00;71.70
75931;DHT22;64609;47.052;15.462;2022-11-14T00:44:17;13.00;71.60
75931;DHT22;64609;47.052;15.462;2022-11-14T00:46:43;13.00;71.50
75931;DHT22;64609;47.052;15.462;2022-11-14T00:49:09;13.00;71.80
75931;DHT22;64609;47.052;15.462;2022-11-14T00:51:35;13.00;72.00
75931;DHT22;64609;47.052;15.462;2022-11-14T00:54:01;13.00;72.00
75931;DHT22;64609;47.052;15.462;2022-11-14T00:56:27;12.90;72.20
75931;DHT22;64609;47.052;15.462;2022-11-14T00:58:53;13.00;72.00
75931;DHT22;64609;47.052;15.462;2022-11-14T01:01:19;13.00;72.30
75931;DHT22;64609;47.052;15.462;2022-11-14T01:03:48;12.90;72.00
75931;DHT22;64609;47.052;15.462;2022-11-14T01:06:15;13.00;72.10
75931;DHT22;64609;47.052;15.462;2022-11-14T01:08:42;12.90;72.20
75931;DHT22;64609;47.052;15.462;2022-11-14T01:11:14;12.90;72.50
75931;DHT22;64609;47.052;15.462;2022-11-14T01:13:41;12.90;72.40
75931;DHT22;64609;47.052;15.462;2022-11-14T01:16:08;12.80;72.30
75931;DHT22;64609;47.052;15.462;2022-11-14T01:18:34;12.80;72.40
75931;DHT22;64609;47.052;15.462;2022-11-14T01:21:04;12.80;72.40
75931;DHT22;64609;47.052;15.462;2022-11-14T01:23:31;12.80;72.30
75931;DHT22;64609;47.052;15.462;2022-11-14T01:26:06;12.80;72.80
75931;DHT22;64609;47.052;15.462;2022-11-14T01:28:32;12.80;72.60
75931;DHT22;64609;47.052;15.462;2022-11-14T01:31:15;12.80;72.80
75931;DHT22;64609;47.052;15.462;2022-11-14T01:33:41;12.80;72.70
75931;DHT22;64609;47.052;15.462;2022-11-14T01:36:07;12.80;72.90
75931;DHT22;64609;47.052;15.462;2022-11-14T01:38:34;12.80;72.80
75931;DHT22;64609;47.052;15.462;2022-11-14T01:41:00;12.80;72.80
75931;DHT22;64609;47.052;15.462;2022-11-14T01:43:38;12.80;72.80
75931;DHT22;64609;47.052;15.462;2022-11-14T01:46:13;12.80;72.80
75931;DHT22;64609;47.052;15.462;2022-11-14T01:49:23;12.80;72.60
75931;DHT22;64609;47.052;15.462;2022-11-14T01:51:58;12.80;72.60
75931;DHT22;64609;47.052;15.462;2022-11-14T01:54:29;12.80;72.80
75931;DHT22;64609;47.052;15.462;2022-11-14T01:56:57;12.80;72.60
75931;DHT22;64609;47.052;15.462;2022-11-14T01:59:28;12.80;72.80
75931;DHT22;64609;47.052;15.462;2022-11-14T02:01:56;12.80;72.80
75931;DHT22;64609;47.052;15.462;2022-11-14T02:04:28;12.80;72.80
75931;DHT22;64609;47.052;15.462;2022-11-14T02:06:58;12.80;72.70
75931;DHT22;64609;47.052;15.462;2022-11-14T02:09:24;12.80;72.70
75931;DHT22;64609;47.052;15.462;2022-11-14T02:11:52;12.70;72.90
75931;DHT22;64609;47.052;15.462;2022-11-14T02:14:19;12.70;73.10
75931;DHT22;64609;47.052;15.462;2022-11-14T02:16:45;12.60;73.30
75931;DHT22;64609;47.052;15.462;2022-11-14T02:19:13;12.60;73.30
75931;DHT22;64609;47.052;15.462;2022-11-14T02:21:39;12.60;73.50
75931;DHT22;64609;47.052;15.462;2022-11-14T02:24:08;12.60;73.90
75931;DHT22;64609;47.052;15.462;2022-11-14T02:26:34;12.60;74.10
75931;DHT22;64609;47.052;15.462;2022-11-14T02:29:00;12.60;73.80
75931;DHT22;64609;47.052;15.462;2022-11-14T02:31:25;12.60;73.60
75931;DHT22;64609;47.052;15.462;2022-11-14T02:33:51;12.60;73.80
75931;DHT22;64609;47.052;15.462;2022-11-14T02:36:16;12.60;73.80
75931;DHT22;64609;47.052;15.462;2022-11-14T02:38:42;12.60;73.80
75931;DHT22;64609;47.052;15.462;2022-11-14T02:41:07;12.60;73.60
75931;DHT22;64609;47.052;15.462;2022-11-14T02:43:33;12.60;73.30
75931;DHT22;64609;47.052;15.462;2022-11-14T02:45:59;12.50;73.90
75931;DHT22;64609;47.052;15.462;2022-11-14T02:48:24;12.50;74.20
75931;DHT22;64609;47.052;15.462;2022-11-14T02:50:50;12.50;74.00
75931;DHT22;64609;47.052;15.462;2022-11-14T02:53:16;12.50;74.50
75931;DHT22;64609;47.052;15.462;2022-11-14T02:55:41;12.50;74.50
75931;DHT22;64609;47.052;15.462;2022-11-14T02:58:07;12.50;74.50
75931;DHT22;64609;47.052;15.462;2022-11-14T03:00:33;12.60;74.40
75931;DHT22;64609;47.052;15.462;2022-11-14T03:02:58;12.50;74.40
75931;DHT22;64609;47.052;15.462;2022-11-14T03:05:24;12.60;74.40
75931;DHT22;64609;47.052;15.462;2022-11-14T03:07:53;12.60;75.10
75931;DHT22;64609;47.052;15.462;2022-11-14T03:10:19;12.50;74.20
75931;DHT22;64609;47.052;15.462;2022-11-14T03:12:45;12.60;74.20
75931;DHT22;64609;47.052;15.462;2022-11-14T03:15:11;12.60;74.40
75931;DHT22;64609;47.052;15.462;2022-11-14T03:17:37;12.60;73.90
75931;DHT22;64609;47.052;15.462;2022-11-14T03:20:03;12.60;73.90
75931;DHT22;64609;47.052;15.462;2022-11-14T03:22:29;12.50;73.80
75931;DHT22;64609;47.052;15.462;2022-11-14T03:24:55;12.60;73.90
75931;DHT22;64609;47.052;15.462;2022-11-14T03:27:20;12.50;74.00
75931;DHT22;64609;47.052;15.462;2022-11-14T03:29:49;12.60;73.80
75931;DHT22;64609;47.052;15.462;2022-11-14T03:32:14;12.60;73.90
75931;DHT22;64609;47.052;15.462;2022-11-14T03:34:41;12.50;73.60
75931;DHT22;64609;47.052;15.462;2022-11-14T03:37:07;12.60;73.90
75931;DHT22;64609;47.052;15.462;2022-11-14T03:39:32;12.50;73.70
75931;DHT22;64609;47.052;15.462;2022-11-14T03:41:58;12.60;73.80
75931;DHT22;64609;47.052;15.462;2022-11-14T03:44:24;12.50;73.70
75931;DHT22;64609;47.052;15.462;2022-11-14T03:46:50;12.50;73.60
75931;DHT22;64609;47.052;15.462;2022-11-14T03:49:17;12.50;73.80
75931;DHT22;64609;47.052;15.462;2022-11-14T03:51:42;12.50;74.30
75931;DHT22;64609;47.052;15.462;2022-11-14T03:54:08;12.50;74.20
75931;DHT22;64609;47.052;15.462;2022-11-14T03:56:34;12.50;74.10
75931;DHT22;64609;47.052;15.462;2022-11-14T03:58:59;12.40;74.00
75931;DHT22;64609;47.052;15.462;2022-11-14T04:01:25;12.40;74.10
75931;DHT22;64609;47.052;15.462;2022-11-14T04:03:52;12.40;74.50
75931;DHT22;64609;47.052;15.462;2022-11-14T04:06:17;12.40;74.30
75931;DHT22;64609;47.052;15.462;2022-11-14T04:08:43;12.40;75.40
75931;DHT22;64609;47.052;15.462;2022-11-14T04:11:09;12.30;74.60
75931;DHT22;64609;47.052;15.462;2022-11-14T04:13:34;12.30;74.80
75931;DHT22;64609;47.052;15.462;2022-11-14T04:16:00;12.30;75.00
75931;DHT22;64609;47.052;15.462;2022-11-14T04:18:26;12.30;74.80
75931;DHT22;64609;47.052;15.462;2022-11-14T04:20:52;12.30;74.60
75931;DHT22;64609;47.052;15.462;2022-11-14T04:23:18;12.30;74.60
75931;DHT22;64609;47.052;15.462;2022-11-14T04:25:45;12.30;75.00
75931;DHT22;64609;47.052;15.462;2022-11-14T04:28:11;12.30;75.10
75931;DHT22;64609;47.052;15.462;2022-11-14T04:30:37;12.30;75.10
75931;DHT22;64609;47.052;15.462;2022-11-14T04:33:03;12.30;75.80
75931;DHT22;64609;47.052;15.462;2022-11-14T04:35:29;12.30;75.60
75931;DHT22;64609;47.052;15.462;2022-11-14T04:37:55;12.20;74.70
75931;DHT22;64609;47.052;15.462;2022-11-14T04:40:20;12.20;75.50
75931;DHT22;64609;47.052;15.462;2022-11-14T04:42:47;12.20;75.80
75931;DHT22;64609;47.052;15.462;2022-11-14T04:45:13;12.20;75.60
75931;DHT22;64609;47.052;15.462;2022-11-14T04:47:41;12.20;75.70
75931;DHT22;64609;47.052;15.462;2022-11-14T04:50:07;12.20;75.50
75931;DHT22;64609;47.052;15.462;2022-11-14T04:52:33;12.20;75.30
75931;DHT22;64609;47.052;15.462;2022-11-14T04:54:58;12.10;76.00
75931;DHT22;64609;47.052;15.462;2022-11-14T04:57:24;12.20;76.10
75931;DHT22;64609;47.052;15.462;2022-11-14T04:59:50;12.30;75.90
75931;DHT22;64609;47.052;15.462;2022-11-14T05:02:15;12.30;76.00
75931;DHT22;64609;47.052;15.462;2022-11-14T05:04:41;12.40;75.80
75931;DHT22;64609;47.052;15.462;2022-11-14T05:07:09;12.40;75.30
75931;DHT22;64609;47.052;15.462;2022-11-14T05:09:34;12.40;75.40
75931;DHT22;64609;47.052;15.462;2022-11-14T05:12:02;12.40;75.20
75931;DHT22;64609;47.052;15.462;2022-11-14T05:14:27;12.40;75.10
75931;DHT22;64609;47.052;15.462;2022-11-14T05:16:53;12.40;75.00
75931;DHT22;64609;47.052;15.462;2022-11-14T05:19:18;12.40;75.00
75931;DHT22;64609;47.052;15.462;2022-11-14T05:21:44;12.40;75.10
75931;DHT22;64609;47.052;15.462;2022-11-14T05:24:10;12.40;75.00
75931;DHT22;64609;47.052;15.462;2022-11-14T05:26:35;12.40;75.10
75931;DHT22;64609;47.052;15.462;2022-11-14T05:29:01;12.50;75.30
75931;DHT22;64609;47.052;15.462;2022-11-14T05:31:27;12.40;75.30
75931;DHT22;64609;47.052;15.462;2022-11-14T05:33:52;12.40;75.10
75931;DHT22;64609;47.052;15.462;2022-11-14T05:36:19;12.40;75.10
75931;DHT22;64609;47.052;15.462;2022-11-14T05:38:44;12.40;75.60
75931;DHT22;64609;47.052;15.462;2022-11-14T05:41:16;12.30;75.50
75931;DHT22;64609;47.052;15.462;2022-11-14T05:43:42;12.40;75.60
75931;DHT22;64609;47.052;15.462;2022-11-14T05:46:12;12.40;75.50
75931;DHT22;64609;47.052;15.462;2022-11-14T05:48:39;12.40;75.50
75931;DHT22;64609;47.052;15.462;2022-11-14T05:51:05;12.40;75.50
75931;DHT22;64609;47.052;15.462;2022-11-14T05:53:32;12.40;75.30
75931;DHT22;64609;47.052;15.462;2022-11-14T05:56:05;12.20;75.50
75931;DHT22;64609;47.052;15.462;2022-11-14T05:58:32;12.30;75.70
75931;DHT22;64609;47.052;15.462;2022-11-14T06:01:13;12.30;76.30
75931;DHT22;64609;47.052;15.462;2022-11-14T06:03:41;12.30;76.80
75931;DHT22;64609;47.052;15.462;2022-11-14T06:06:10;12.40;76.80
75931;DHT22;64609;47.052;15.462;2022-11-14T06:08:36;12.30;76.30
75931;DHT22;64609;47.052;15.462;2022-11-14T06:11:04;12.30;76.40
75931;DHT22;64609;47.052;15.462;2022-11-14T06:13:31;12.30;76.30
75931;DHT22;64609;47.052;15.462;2022-11-14T06:16:04;12.30;76.90
75931;DHT22;64609;47.052;15.462;2022-11-14T06:18:31;12.30;76.30
75931;DHT22;64609;47.052;15.462;2022-11-14T06:21:17;12.40;76.10
75931;DHT22;64609;47.052;15.462;2022-11-14T06:23:44;12.40;76.00
75931;DHT22;64609;47.052;15.462;2022-11-14T06:26:23;12.40;76.00
75931;DHT22;64609;47.052;15.462;2022-11-14T06:28:50;12.50;75.90
75931;DHT22;64609;47.052;15.462;2022-11-14T06:31:17;12.50;76.10
75931;DHT22;64609;47.052;15.462;2022-11-14T06:33:43;12.50;76.00
75931;DHT22;64609;47.052;15.462;2022-11-14T06:36:09;12.50;76.00
75931;DHT22;64609;47.052;15.462;2022-11-14T06:38:36;12.50;76.00
75931;DHT22;64609;47.052;15.462;2022-11-14T06:41:07;12.50;75.90
75931;DHT22;64609;47.052;15.462;2022-11-14T06:43:40;12.50;76.00
75931;DHT22;64609;47.052;15.462;2022-11-14T06:46:09;12.50;76.00
75931;DHT22;64609;47.052;15.462;2022-11-14T06:48:35;12.60;76.10
75931;DHT22;64609;47.052;15.462;2022-11-14T06:51:01;12.60;76.90
75931;DHT22;64609;47.052;15.462;2022-11-14T06:53:28;12.60;75.90
75931;DHT22;64609;47.052;15.462;2022-11-14T06:56:01;12.60;75.70
75931;DHT22;64609;47.052;15.462;2022-11-14T06:58:29;12.60;76.10
75931;DHT22;64609;47.052;15.462;2022-11-14T07:00:55;12.60;75.30
75931;DHT22;64609;47.052;15.462;2022-11-14T07:03:21;12.50;75.80
75931;DHT22;64609;47.052;15.462;2022-11-14T07:05:47;12.50;76.00
75931;DHT22;64609;47.052;15.462;2022-11-14T07:08:14;12.60;76.20
75931;DHT22;64609;47.052;15.462;2022-11-14T07:10:40;12.60;76.10
75931;DHT22;64609;47.052;15.462;2022-11-14T07:13:05;12.70;75.90
75931;DHT22;64609;47.052;15.462;2022-11-14T07:15:31;12.80;75.70
75931;DHT22;64609;47.052;15.462;2022-11-14T07:17:58;12.80;75.50
75931;DHT22;64609;47.052;15.462;2022-11-14T07:20:23;12.80;75.40
75931;DHT22;64609;47.052;15.462;2022-11-14T07:22:49;12.80;75.50
75931;DHT22;64609;47.052;15.462;2022-11-14T07:25:15;12.90;75.60
75931;DHT22;64609;47.052;15.462;2022-11-14T07:27:40;12.90;75.30
75931;DHT22;64609;47.052;15.462;2022-11-14T07:30:06;12.90;75.30
75931;DHT22;64609;47.052;15.462;2022-11-14T07:32:32;13.00;75.20
75931;DHT22;64609;47.052;15.462;2022-11-14T07:34:57;12.90;75.20
75931;DHT22;64609;47.052;15.462;2022-11-14T07:37:23;13.00;75.10
75931;DHT22;64609;47.052;15.462;2022-11-14T07:39:49;13.00;75.20
75931;DHT22;64609;47.052;15.462;2022-11-14T07:42:14;13.00;75.00
75931;DHT22;64609;47.052;15.462;2022-11-14T07:44:40;13.00;74.40
75931;DHT22;64609;47.052;15.462;2022-11-14T07:47:05;13.00;73.90
75931;DHT22;64609;47.052;15.462;2022-11-14T07:49:31;12.90;74.00
75931;DHT22;64609;47.052;15.462;2022-11-14T07:51:57;12.90;74.30
75931;DHT22;64609;47.052;15.462;2022-11-14T07:54:22;12.80;74.70
75931;DHT22;64609;47.052;15.462;2022-11-14T07:56:48;12.90;74.60
75931;DHT22;64609;47.052;15.462;2022-11-14T07:59:13;13.00;74.50
75931;DHT22;64609;47.052;15.462;2022-11-14T08:01:39;13.00;74.80
75931;DHT22;64609;47.052;15.462;2022-11-14T08:04:05;13.10;74.70
75931;DHT22;64609;47.052;15.462;2022-11-14T08:06:30;13.10;74.40
75931;DHT22;64609;47.052;15.462;2022-11-14T08:08:56;13.20;74.20
75931;DHT22;64609;47.052;15.462;2022-11-14T08:11:21;13.20;74.50
75931;DHT22;64609;47.052;15.462;2022-11-14T08:14:07;13.20;74.60
75931;DHT22;64609;47.052;15.462;2022-11-14T08:16:33;13.30;74.50
75931;DHT22;64609;47.052;15.462;2022-11-14T08:18:59;13.40;73.80
75931;DHT22;64609;47.052;15.462;2022-11-14T08:21:24;13.40;73.10
75931;DHT22;64609;47.052;15.462;2022-11-14T08:23:50;13.40;72.90
75931;DHT22;64609;47.052;15.462;2022-11-14T08:26:16;13.40;72.80
75931;DHT22;64609;47.052;15.462;2022-11-14T08:28:41;13.40;72.80
75931;DHT22;64609;47.052;15.462;2022-11-14T08:31:07;13.50;73.00
75931;DHT22;64609;47.052;15.462;2022-11-14T08:33:34;13.60;72.70
75931;DHT22;64609;47.052;15.462;2022-11-14T08:36:04;13.50;72.10
75931;DHT22;64609;47.052;15.462;2022-11-14T08:38:31;13.60;72.40
75931;DHT22;64609;47.052;15.462;2022-11-14T08:40:57;13.70;72.30
75931;DHT22;64609;47.052;15.462;2022-11-14T08:43:23;13.70;72.20
75931;DHT22;64609;47.052;15.462;2022-11-14T08:45:49;13.70;71.80
75931;DHT22;64609;47.052;15.462;2022-11-14T08:48:15;13.80;71.90
75931;DHT22;64609;47.052;15.462;2022-11-14T08:50:40;13.80;71.90
75931;DHT22;64609;47.052;15.462;2022-11-14T08:53:06;13.80;71.90
75931;DHT22;64609;47.052;15.462;2022-11-14T08:55:32;13.90;71.60
75931;DHT22;64609;47.052;15.462;2022-11-14T08:57:57;13.90;71.00
75931;DHT22;64609;47.052;15.462;2022-11-14T09:00:23;13.90;70.50
75931;DHT22;64609;47.052;15.462;2022-11-14T09:02:49;13.90;70.70
75931;DHT22;64609;47.052;15.462;2022-11-14T09:05:15;14.00;70.60
75931;DHT22;64609;47.052;15.462;2022-11-14T09:07:40;14.60;70.30
75931;DHT22;64609;47.052;15.462;2022-11-14T09:10:06;15.40;68.80
75931;DHT22;64609;47.052;15.462;2022-11-14T09:12:32;16.50;66.00
75931;DHT22;64609;47.052;15.462;2022-11-14T09:14:58;17.50;62.30
75931;DHT22;64609;47.052;15.462;2022-11-14T09:17:24;17.90;60.50
75931;DHT22;64609;47.052;15.462;2022-11-14T09:19:50;17.90;59.30
75931;DHT22;64609;47.052;15.462;2022-11-14T09:22:15;18.10;59.10
75931;DHT22;64609;47.052;15.462;2022-11-14T09:24:41;18.40;58.80
75931;DHT22;64609;47.052;15.462;2022-11-14T09:27:07;18.70;57.10
75931;DHT22;64609;47.052;15.462;2022-11-14T09:29:33;18.60;56.60
75931;DHT22;64609;47.052;15.462;2022-11-14T09:31:58;18.50;56.40
75931;DHT22;64609;47.052;15.462;2022-11-14T09:34:24;18.50;56.60
75931;DHT22;64609;47.052;15.462;2022-11-14T09:36:49;18.70;56.10
75931;DHT22;64609;47.052;15.462;2022-11-14T09:39:15;18.90;55.60
75931;DHT22;64609;47.052;15.462;2022-11-14T09:47:27;19.10;54.50
75931;DHT22;64609;47.052;15.462;2022-11-14T09:52:39;19.50;53.40
75931;DHT22;64609;47.052;15.462;2022-11-14T09:55:19;19.50;52.30
75931;DHT22;64609;47.052;15.462;2022-11-14T09:57:45;19.50;53.10
75931;DHT22;64609;47.052;15.462;2022-11-14T10:02:51;19.50;51.60
75931;DHT22;64609;47.052;15.462;2022-11-14T10:10:51;19.50;52.60
75931;DHT22;64609;47.052;15.462;2022-11-14T10:13:47;19.40;51.90
75931;DHT22;64609;47.052;15.462;2022-11-14T10:17:08;19.40;52.10
75931;DHT22;64609;47.052;15.462;2022-11-14T10:19:32;19.50;52.60
75931;DHT22;64609;47.052;15.462;2022-11-14T10:30:38;20.20;50.50
75931;DHT22;64609;47.052;15.462;2022-11-14T10:33:35;20.00;50.80
75931;DHT22;64609;47.052;15.462;2022-11-14T10:36:29;19.90;51.10
75931;DHT22;64609;47.052;15.462;2022-11-14T10:41:45;19.60;50.80
75931;DHT22;64609;47.052;15.462;2022-11-14T10:44:17;19.30;51.70
75931;DHT22;64609;47.052;15.462;2022-11-14T10:46:49;19.00;52.00
75931;DHT22;64609;47.052;15.462;2022-11-14T10:49:23;18.80;52.80
75931;DHT22;64609;47.052;15.462;2022-11-14T10:51:58;18.70;53.30
75931;DHT22;64609;47.052;15.462;2022-11-14T10:54:38;18.80;53.70
75931;DHT22;64609;47.052;15.462;2022-11-14T10:57:14;18.90;53.10
75931;DHT22;64609;47.052;15.462;2022-11-14T10:59:41;19.10;52.60
75931;DHT22;64609;47.052;15.462;2022-11-14T11:02:07;19.40;52.30
75931;DHT22;64609;47.052;15.462;2022-11-14T11:04:34;19.70;51.50
75931;DHT22;64609;47.052;15.462;2022-11-14T11:09:32;19.90;50.30
75931;DHT22;64609;47.052;15.462;2022-11-14T11:12:20;19.80;50.70
75931;DHT22;64609;47.052;15.462;2022-11-14T11:14:48;19.80;50.90
75931;DHT22;64609;47.052;15.462;2022-11-14T11:17:17;19.90;50.50
75931;DHT22;64609;47.052;15.462;2022-11-14T11:19:45;19.90;50.50
75931;DHT22;64609;47.052;15.462;2022-11-14T11:22:37;19.80;50.10
75931;DHT22;64609;47.052;15.462;2022-11-14T11:25:36;19.60;50.50
75931;DHT22;64609;47.052;15.462;2022-11-14T11:30:36;19.40;51.20
75931;DHT22;64609;47.052;15.462;2022-11-14T11:33:15;19.40;50.70
75931;DHT22;64609;47.052;15.462;2022-11-14T11:35:42;19.30;50.60
75931;DHT22;64609;47.052;15.462;2022-11-14T11:38:10;19.40;50.70
75931;DHT22;64609;47.052;15.462;2022-11-14T11:40:36;19.40;50.60
75931;DHT22;64609;47.052;15.462;2022-11-14T11:45:33;19.50;51.20
75931;DHT22;64609;47.052;15.462;2022-11-14T11:48:15;19.60;51.20
75931;DHT22;64609;47.052;15.462;2022-11-14T11:50:42;19.60;51.00
75931;DHT22;64609;47.052;15.462;2022-11-14T11:53:23;19.60;50.70
75931;DHT22;64609;47.052;15.462;2022-11-14T11:55:57;19.60;50.90
75931;DHT22;64609;47.052;15.462;2022-11-14T11:58:37;19.60;51.00
75931;DHT22;64609;47.052;15.462;2022-11-14T12:01:09;19.60;50.70
75931;DHT22;64609;47.052;15.462;2022-11-14T12:03:36;19.60;50.50
75931;DHT22;64609;47.052;15.462;2022-11-14T12:06:20;19.40;50.80
75931;DHT22;64609;47.052;15.462;2022-11-14T12:11:33;19.20;51.00
75931;DHT22;64609;47.052;15.462;2022-11-14T12:30:22;18.70;53.00
75931;DHT22;64609;47.052;15.462;2022-11-14T12:32:52;18.60;52.70
75931;DHT22;64609;47.052;15.462;2022-11-14T12:35:24;18.40;52.90
75931;DHT22;64609;47.052;15.462;2022-11-14T12:37:53;18.50;53.50
75931;DHT22;64609;47.052;15.462;2022-11-14T12:43:00;18.40;53.20
75931;DHT22;64609;47.052;15.462;2022-11-14T12:50:52;18.40;52.90
75931;DHT22;64609;47.052;15.462;2022-11-14T13:01:23;18.20;54.10
75931;DHT22;64609;47.052;15.462;2022-11-14T13:04:12;18.20;54.50
75931;DHT22;64609;47.052;15.462;2022-11-14T13:07:02;18.10;54.40
75931;DHT22;64609;47.052;15.462;2022-11-14T13:09:38;18.00;54.40
75931;DHT22;64609;47.052;15.462;2022-11-14T13:18:14;17.90;54.90
75931;DHT22;64609;47.052;15.462;2022-11-14T13:21:04;17.80;55.00
75931;DHT22;64609;47.052;15.462;2022-11-14T13:28:50;17.70;55.90
75931;DHT22;64609;47.052;15.462;2022-11-14T13:36:12;17.70;56.40
75931;DHT22;64609;47.052;15.462;2022-11-14T13:50:18;17.60;57.10
75931;DHT22;64609;47.052;15.462;2022-11-14T13:52:49;17.60;57.30
75931;DHT22;64609;47.052;15.462;2022-11-14T14:01:43;17.40;57.60
75931;DHT22;64609;47.052;15.462;2022-11-14T14:15:40;17.20;58.50
75931;DHT22;64609;47.052;15.462;2022-11-14T14:23:46;17.10;59.10
75931;DHT22;64609;47.052;15.462;2022-11-14T14:29:23;17.00;59.00
75931;DHT22;64609;47.052;15.462;2022-11-14T14:31:49;17.00;59.30
75931;DHT22;64609;47.052;15.462;2022-11-14T14:34:26;17.00;59.40
75931;DHT22;64609;47.052;15.462;2022-11-14T14:36:53;17.00;59.80
75931;DHT22;64609;47.052;15.462;2022-11-14T14:39:20;16.90;59.80
75931;DHT22;64609;47.052;15.462;2022-11-14T14:41:47;16.90;60.00
75931;DHT22;64609;47.052;15.462;2022-11-14T14:44:32;16.80;60.20
75931;DHT22;64609;47.052;15.462;2022-11-14T14:47:14;16.80;60.60
75931;DHT22;64609;47.052;15.462;2022-11-14T14:49:40;16.70;60.40
75931;DHT22;64609;47.052;15.462;2022-11-14T14:54:54;16.60;61.30
75931;DHT22;64609;47.052;15.462;2022-11-14T14:57:21;16.60;61.40
75931;DHT22;64609;47.052;15.462;2022-11-14T14:59:58;16.50;61.70
75931;DHT22;64609;47.052;15.462;2022-11-14T15:02:25;16.50;61.90
75931;DHT22;64609;47.052;15.462;2022-11-14T15:04:51;16.40;62.10
75931;DHT22;64609;47.052;15.462;2022-11-14T15:07:23;16.40;62.60
75931;DHT22;64609;47.052;15.462;2022-11-14T15:09:53;16.30;62.90
75931;DHT22;64609;47.052;15.462;2022-11-14T15:12:21;16.30;63.30
75931;DHT22;64609;47.052;15.462;2022-11-14T15:14:48;16.10;63.20
75931;DHT22;64609;47.052;15.462;2022-11-14T15:17:14;16.10;63.70
75931;DHT22;64609;47.052;15.462;2022-11-14T15:19:43;16.00;63.90
75931;DHT22;64609;47.052;15.462;2022-11-14T15:24:42;15.90;64.50
75931;DHT22;64609;47.052;15.462;2022-11-14T15:27:15;15.90;64.60
75931;DHT22;64609;47.052;15.462;2022-11-14T15:29:52;15.70;65.60
75931;DHT22;64609;47.052;15.462;2022-11-14T15:32:23;15.60;65.00
75931;DHT22;64609;47.052;15.462;2022-11-14T15:35:22;15.60;65.40
75931;DHT22;64609;47.052;15.462;2022-11-14T15:38:05;15.50;65.60
75931;DHT22;64609;47.052;15.462;2022-11-14T15:40:32;15.50;65.80
75931;DHT22;64609;47.052;15.462;2022-11-14T15:42:58;15.40;65.70
75931;DHT22;64609;47.052;15.462;2022-11-14T15:45:38;15.40;66.00
75931;DHT22;64609;47.052;15.462;2022-11-14T15:48:12;15.30;66.10
75931;DHT22;64609;47.052;15.462;2022-11-14T15:50:40;15.30;66.30
75931;DHT22;64609;47.052;15.462;2022-11-14T15:53:20;15.30;66.60
75931;DHT22;64609;47.052;15.462;2022-11-14T15:55:47;15.20;66.60
75931;DHT22;64609;47.052;15.462;2022-11-14T15:58:12;15.20;66.80
75931;DHT22;64609;47.052;15.462;2022-11-14T16:00:44;15.20;66.80
75931;DHT22;64609;47.052;15.462;2022-11-14T16:03:13;15.20;67.10
75931;DHT22;64609;47.052;15.462;2022-11-14T16:05:40;15.10;67.30
75931;DHT22;64609;47.052;15.462;2022-11-14T16:08:05;15.20;67.30
75931;DHT22;64609;47.052;15.462;2022-11-14T16:10:31;15.20;67.20
75931;DHT22;64609;47.052;15.462;2022-11-14T16:12:56;15.20;67.30
75931;DHT22;64609;47.052;15.462;2022-11-14T16:15:22;15.20;67.40
75931;DHT22;64609;47.052;15.462;2022-11-14T16:17:49;15.20;67.40
75931;DHT22;64609;47.052;15.462;2022-11-14T16:20:17;15.20;67.50
75931;DHT22;64609;47.052;15.462;2022-11-14T16:22:44;15.20;67.50
75931;DHT22;64609;47.052;15.462;2022-11-14T16:25:22;15.20;67.50
75931;DHT22;64609;47.052;15.462;2022-11-14T16:27:48;15.20;67.50
75931;DHT22;64609;47.052;15.462;2022-11-14T16:30:16;15.20;67.60
75931;DHT22;64609;47.052;15.462;2022-11-14T16:32:43;15.20;67.60
75931;DHT22;64609;47.052;15.462;2022-11-14T16:35:14;15.20;67.60
75931;DHT22;64609;47.052;15.462;2022-11-14T16:37:40;15.20;67.90
75931;DHT22;64609;47.052;15.462;2022-11-14T16:40:11;15.10;68.10
75931;DHT22;64609;47.052;15.462;2022-11-14T16:42:37;15.10;68.10
75931;DHT22;64609;47.052;15.462;2022-11-14T16:45:03;15.10;68.30
75931;DHT22;64609;47.052;15.462;2022-11-14T16:47:29;15.10;68.80
75931;DHT22;64609;47.052;15.462;2022-11-14T16:49:56;15.10;68.90
75931;DHT22;64609;47.052;15.462;2022-11-14T16:52:22;15.00;69.00
75931;DHT22;64609;47.052;15.462;2022-11-14T16:54:47;15.00;69.30
75931;DHT22;64609;47.052;15.462;2022-11-14T16:57:13;15.00;69.30
75931;DHT22;64609;47.052;15.462;2022-11-14T16:59:39;15.00;69.50
75931;DHT22;64609;47.052;15.462;2022-11-14T17:02:04;14.90;69.60
75931;DHT22;64609;47.052;15.462;2022-11-14T17:04:30;14.90;69.40
75931;DHT22;64609;47.052;15.462;2022-11-14T17:06:56;14.80;69.50
75931;DHT22;64609;47.052;15.462;2022-11-14T17:09:21;14.80;69.80
75931;DHT22;64609;47.052;15.462;2022-11-14T17:11:47;14.80;70.20
75931;DHT22;64609;47.052;15.462;2022-11-14T17:14:12;14.70;70.40
75931;DHT22;64609;47.052;15.462;2022-11-14T17:16:38;14.80;70.60
75931;DHT22;64609;47.052;15.462;2022-11-14T17:19:04;14.80;70.50
75931;DHT22;64609;47.052;15.462;2022-11-14T17:21:29;14.80;70.50
75931;DHT22;64609;47.052;15.462;2022-11-14T17:23:57;14.80;70.50
75931;DHT22;64609;47.052;15.462;2022-11-14T17:26:24;14.90;70.60
75931;DHT22;64609;47.052;15.462;2022-11-14T17:28:50;14.80;70.60
75931;DHT22;64609;47.052;15.462;2022-11-14T17:31:16;14.80;71.00
75931;DHT22;64609;47.052;15.462;2022-11-14T17:33:42;14.80;71.00